Portada
METAR-TAF:

METAR-TAF

Aeroports :

Fuzhou, Xina

latitud: 26-05N, longitud: 119-17E, altitud: 85 m

Observació

L'informe es va fer fa 1 hora i 0 minuts, a les 23:00 UTC
Vent 6 kt del Nord, variant entre Nord-Oest i Nord/Nord-Est
Temperatura 19°C
Humitat 68%
Pressió 1018 hPa
Visibilitat 10 km o més
Cel ennuvolat a una alçada de 2300 ft

METAR: ZSFZ 212300Z 36003MPS 310V020 9999 BKN023 19/13 Q1018 NOSIG

Hora: 08:00 (00:00 UTC)

Pronòstic

L'informe es va fer fa 4 hores i 55 minuts, a les 19:05 UTC
Pronòstic vàlid del 22 a les 00 UTC al 22 a les 24 UTC
Vent 10 kt del Nord
Visibilitat: 6000 m
Cel ennuvolat a una alçada de 3000 ft

TAF: ZSFZ 211905Z 2200/2224 01005MPS 6000 BKN030 TX22/2206Z TN17/2221Z

Observacions i pronòstics meteorològics de més de 4000 aeroports (METAR i TAF).

Les estacions disponibles són els punts grocs i vermells al mapa.

Posi el ratolí al punt desitjat per veure el nom de l'estació.

Feu clic per veure les observacions i els pronòstics meteorològics.

Per canviar el mapa: feu clic els botons verds amb una creu de color negre per apropar; al botó verd amb un guió per allunyar la imatge; o en les fletxes verdes per a mapes adjacents.


METAR-TAF: